Time;durP1;ratioP1;P1;durP2;ratioP2;P2;SDS_P1;SDS_P2;PMS_P1;PMS_P2;Temp;Humidity;BMP_temperature;BMP_pressure;BME280_temperature;BME280_humidity;BME280_pressure;Samples;Min_cycle;Max_cycle;Signal;HPM_P1;HPM_P2
2021/08/18 11:25:45;;;;;;;1.67;1.10;;;20.90;99.90;;;;;;5836860;24;20495;-85
2021/08/18 11:28:21;;;;;;;1.50;1.40;;;20.90;99.90;;;;;;5953079;23;20494;-85
2021/08/18 11:31:01;;;;;;;1.20;0.90;;;20.70;99.90;;;;;;6069439;23;20424;-85
2021/08/18 11:33:34;;;;;;;1.53;1.43;;;20.70;99.90;;;;;;6169658;23;20437;-85
2021/08/18 11:36:14;;;;;;;1.63;1.40;;;20.50;99.90;;;;;;6168830;23;20473;-85
2021/08/18 11:38:41;;;;;;;1.30;1.20;;;20.60;99.90;;;;;;6170066;23;20460;-85
2021/08/18 11:41:09;;;;;;;0.90;0.90;;;20.70;99.90;;;;;;6171090;23;20410;-84
2021/08/18 11:44:12;;;;;;;;;;;;;;;;;;;;;
2021/08/18 11:53:12;;;;;;;1.10;0.93;;;20.50;99.90;;;;;;5942373;24;20413;-85
2021/08/18 11:55:42;;;;;;;1.10;1.00;;;20.40;99.90;;;;;;6012771;23;20458;-85
2021/08/18 11:58:12;;;;;;;0.90;0.87;;;20.40;99.90;;;;;;6145717;23;20493;-85
2021/08/18 12:00:41;;;;;;;0.90;0.90;;;20.60;99.90;;;;;;6200092;23;20470;-85
2021/08/18 12:03:08;;;;;;;1.30;1.00;;;20.70;99.90;;;;;;6200381;23;20410;-85
2021/08/18 12:05:37;;;;;;;0.73;0.73;;;20.90;99.90;;;;;;6200854;23;20990;-85
2021/08/18 12:08:08;;;;;;;1.00;1.00;;;21.00;99.90;;;;;;6200379;23;20417;-85
2021/08/18 12:10:39;;;;;;;1.30;1.20;;;21.00;99.90;;;;;;6200221;23;20437;-85
2021/08/18 12:13:24;;;;;;;2.83;1.60;;;21.00;99.90;;;;;;6199822;23;20976;-85
2021/08/18 12:15:52;;;;;;;2.50;1.80;;;20.90;99.90;;;;;;6199571;23;20479;-85
2021/08/18 12:18:28;;;;;;;1.70;1.27;;;20.80;99.90;;;;;;6198647;23;20428;-85
2021/08/18 12:20:55;;;;;;;1.83;1.67;;;20.80;99.90;;;;;;6200292;23;20420;-85
2021/08/18 12:23:25;;;;;;;2.63;2.43;;;20.50;99.90;;;;;;6199494;23;20408;-85
2021/08/18 13:30:59;;;;;;;0.70;0.60;;;21.40;99.50;;;;;;5852011;24;20434;-85
2021/08/18 15:03:57;;;;;;;1.70;1.60;;;20.90;98.90;;;;;;5960598;23;20495;-85
2021/08/18 15:06:24;;;;;;;1.20;1.20;;;20.80;99.20;;;;;;6153247;23;20195;-84
2021/08/18 15:08:51;;;;;;;1.23;1.10;;;20.80;99.30;;;;;;6166058;23;20498;-84
2021/08/18 15:11:18;;;;;;;1.07;1.00;;;20.80;99.50;;;;;;6166358;23;20482;-84
2021/08/18 15:13:44;;;;;;;1.23;1.00;;;21.50;99.70;;;;;;6164952;23;20409;-85
2021/08/18 15:16:11;;;;;;;1.43;1.33;;;22.70;98.10;;;;;;6164575;23;20537;-84
2021/08/18 15:18:38;;;;;;;1.33;1.23;;;23.90;95.30;;;;;;6165547;23;20986;-85
2021/08/18 15:21:06;;;;;;;1.23;1.13;;;24.10;94.20;;;;;;6164163;23;20770;-85
2021/08/18 15:23:33;;;;;;;1.07;0.97;;;24.00;93.90;;;;;;6166122;23;20490;-84
2021/08/18 15:26:00;;;;;;;1.10;0.90;;;24.20;93.10;;;;;;6165445;23;20468;-85
2021/08/18 15:28:27;;;;;;;1.47;1.30;;;23.60;93.00;;;;;;6164915;23;20413;-85
2021/08/18 15:30:54;;;;;;;1.47;1.37;;;23.20;94.20;;;;;;6165467;23;20424;-85
2021/08/18 15:33:21;;;;;;;1.20;1.10;;;22.60;94.90;;;;;;6164869;23;20417;-84
2021/08/18 15:35:51;;;;;;;1.47;1.37;;;22.30;95.50;;;;;;6164902;23;20511;-84
2021/08/18 15:38:20;;;;;;;3.13;1.63;;;22.30;95.80;;;;;;6167182;23;20406;-85
2021/08/18 15:40:49;;;;;;;2.23;1.40;;;22.30;96.10;;;;;;6166796;23;20479;-85
2021/08/18 15:43:16;;;;;;;0.90;0.90;;;22.50;96.10;;;;;;6166034;23;20496;-85
2021/08/18 15:45:43;;;;;;;1.60;1.50;;;22.70;96.60;;;;;;6164957;23;20447;-85
2021/08/18 15:48:10;;;;;;;1.73;1.63;;;22.70;96.10;;;;;;6176253;23;20436;-85
2021/08/18 15:50:38;;;;;;;1.87;1.77;;;22.70;96.70;;;;;;6195285;23;20439;-85
2021/08/18 15:53:06;;;;;;;2.10;1.37;;;22.60;96.70;;;;;;6195434;23;20413;-85
2021/08/18 15:55:36;;;;;;;1.40;1.30;;;22.80;96.10;;;;;;6195575;23;20968;-85
2021/08/18 15:58:03;;;;;;;1.20;1.10;;;22.70;96.40;;;;;;6194605;23;20439;-85
2021/08/18 16:00:30;;;;;;;1.33;1.23;;;22.30;95.90;;;;;;6195441;23;20419;-85
2021/08/18 16:02:58;;;;;;;2.67;1.20;;;22.20;96.40;;;;;;6194711;23;20411;-85
2021/08/18 16:05:25;;;;;;;2.20;1.30;;;22.40;96.70;;;;;;6194972;23;20434;-85
2021/08/18 16:07:51;;;;;;;1.00;1.00;;;22.70;96.40;;;;;;6194795;23;20404;-85
2021/08/18 16:10:21;;;;;;;1.60;1.37;;;22.80;96.50;;;;;;6194766;23;20417;-85
2021/08/18 16:12:49;;;;;;;1.43;1.20;;;22.90;96.50;;;;;;6195278;23;20503;-85
2021/08/18 16:15:16;;;;;;;1.40;1.30;;;23.00;95.30;;;;;;6196452;23;20983;-85
2021/08/18 16:17:43;;;;;;;1.60;1.50;;;23.10;94.70;;;;;;6196004;23;20469;-85
2021/08/18 16:20:10;;;;;;;1.33;1.23;;;23.10;94.80;;;;;;6195462;23;20429;-85
2021/08/18 16:22:37;;;;;;;2.17;1.37;;;23.10;94.40;;;;;;6194605;23;20477;-85
2021/08/18 16:25:05;;;;;;;1.30;1.20;;;22.90;94.80;;;;;;6194404;23;20425;-85
2021/08/18 16:27:32;;;;;;;2.07;1.20;;;22.50;94.90;;;;;;6194583;23;20400;-84
2021/08/18 16:30:00;;;;;;;3.00;1.70;;;22.00;95.70;;;;;;6194355;23;20399;-85
2021/08/18 16:32:27;;;;;;;1.53;1.43;;;21.80;96.10;;;;;;6194033;23;20407;-85
2021/08/18 16:34:55;;;;;;;1.90;1.67;;;21.60;96.10;;;;;;6193997;23;20435;-85
2021/08/18 16:37:21;;;;;;;1.40;1.30;;;21.40;96.00;;;;;;6194339;23;20826;-84
2021/08/18 16:39:50;;;;;;;1.50;1.40;;;21.10;96.80;;;;;;6194410;23;20407;-84
2021/08/18 16:42:17;;;;;;;1.20;1.00;;;20.90;97.30;;;;;;6194926;23;20414;-84
2021/08/18 16:44:44;;;;;;;1.80;1.70;;;20.80;97.90;;;;;;6194573;23;20442;-85
2021/08/18 16:47:16;;;;;;;1.70;1.60;;;20.90;97.90;;;;;;6194943;23;20406;-85
2021/08/18 16:49:43;;;;;;;2.07;1.97;;;20.70;98.10;;;;;;6194320;23;20422;-85
2021/08/18 16:52:10;;;;;;;1.73;1.33;;;20.70;98.60;;;;;;6194692;23;20498;-85
2021/08/18 16:54:42;;;;;;;1.87;1.77;;;20.80;98.60;;;;;;6194262;23;20402;-86
2021/08/18 16:57:11;;;;;;;2.37;2.20;;;20.90;98.40;;;;;;6194324;23;20794;-84
2021/08/18 16:59:38;;;;;;;1.93;1.83;;;21.00;98.10;;;;;;6194546;23;20414;-86
2021/08/18 17:02:08;;;;;;;1.40;1.30;;;21.10;98.10;;;;;;6194078;23;20460;-86
2021/08/18 17:04:36;;;;;;;1.70;1.60;;;21.10;98.20;;;;;;6192462;23;20413;-85
2021/08/18 17:07:04;;;;;;;2.83;1.90;;;20.90;98.40;;;;;;6193524;23;20493;-86
2021/08/18 17:09:35;;;;;;;1.60;1.50;;;20.70;98.30;;;;;;6193583;23;20417;-84
2021/08/18 17:12:03;;;;;;;2.37;2.27;;;20.70;98.80;;;;;;6194138;23;20406;-83
2021/08/18 17:14:32;;;;;;;1.63;1.53;;;20.70;98.60;;;;;;6193281;23;20768;-83
2021/08/18 17:16:59;;;;;;;2.07;1.87;;;20.80;98.90;;;;;;6194003;23;20532;-83
2021/08/18 17:19:27;;;;;;;1.73;1.57;;;20.90;98.20;;;;;;6194650;23;20447;-84
2021/08/18 17:21:57;;;;;;;1.90;1.80;;;20.90;98.70;;;;;;6195780;23;20410;-83
2021/08/18 17:24:24;;;;;;;1.90;1.80;;;20.80;98.40;;;;;;6194260;23;20441;-83
2021/08/18 17:26:50;;;;;;;1.70;1.60;;;20.70;98.60;;;;;;6194593;23;20488;-84
2021/08/18 17:29:17;;;;;;;2.40;2.20;;;20.70;98.80;;;;;;6194641;23;20413;-83
2021/08/18 17:31:44;;;;;;;1.83;1.70;;;20.60;99.20;;;;;;6195299;23;20493;-83
2021/08/18 17:34:11;;;;;;;1.77;1.67;;;20.60;99.40;;;;;;6194937;23;20488;-83
2021/08/18 17:36:38;;;;;;;1.60;1.50;;;20.60;99.40;;;;;;6194749;23;20428;-83
2021/08/18 17:39:07;;;;;;;1.70;1.60;;;20.60;99.40;;;;;;6194055;23;20414;-83
2021/08/18 17:41:33;;;;;;;1.70;1.57;;;20.70;99.50;;;;;;6194138;23;20913;-83
2021/08/18 17:44:00;;;;;;;2.13;1.50;;;20.60;99.50;;;;;;6195127;23;20414;-84
2021/08/18 17:46:27;;;;;;;1.90;1.80;;;20.60;99.70;;;;;;6194493;23;20505;-84
2021/08/18 17:48:54;;;;;;;1.47;1.37;;;20.60;99.70;;;;;;6195237;23;20509;-83
2021/08/18 17:51:21;;;;;;;1.90;1.80;;;20.50;99.80;;;;;;6198021;23;20411;-83
2021/08/18 17:53:48;;;;;;;1.70;1.60;;;20.50;99.80;;;;;;6195232;23;20411;-83
2021/08/18 17:56:16;;;;;;;1.93;1.80;;;20.30;99.90;;;;;;6195125;23;20496;-83
2021/08/18 17:58:43;;;;;;;1.57;1.47;;;20.10;99.90;;;;;;6194147;23;20509;-86
2021/08/18 18:01:09;;;;;;;2.20;2.00;;;20.20;99.90;;;;;;6194583;23;20494;-83
2021/08/18 18:03:36;;;;;;;2.20;1.60;;;20.10;99.90;;;;;;6194140;23;20421;-83
2021/08/18 18:06:03;;;;;;;1.90;1.80;;;20.10;99.90;;;;;;6194079;23;20465;-84
2021/08/18 18:08:31;;;;;;;2.10;1.90;;;20.10;99.90;;;;;;6194909;23;20462;-83
2021/08/18 18:11:02;;;;;;;2.33;2.13;;;20.20;99.90;;;;;;6194919;23;20490;-84
2021/08/18 18:13:31;;;;;;;1.57;1.47;;;20.20;99.90;;;;;;6194811;23;20733;-84
2021/08/18 18:15:58;;;;;;;1.80;1.70;;;20.00;99.90;;;;;;6194603;23;20445;-84
2021/08/18 18:18:24;;;;;;;2.70;2.10;;;19.70;99.90;;;;;;6193543;23;20517;-84
2021/08/18 18:20:51;;;;;;;2.50;2.30;;;19.50;99.90;;;;;;6194532;23;20448;-84
2021/08/18 18:23:18;;;;;;;2.50;2.30;;;19.40;99.90;;;;;;6194042;23;20405;-84
2021/08/18 18:25:45;;;;;;;2.43;2.27;;;19.20;99.90;;;;;;6194957;23;20436;-84
2021/08/18 18:28:12;;;;;;;2.67;2.47;;;19.20;99.90;;;;;;6195354;23;20431;-84
2021/08/18 18:30:41;;;;;;;2.47;2.27;;;19.20;99.90;;;;;;6194734;23;20428;-84
2021/08/18 18:33:09;;;;;;;1.93;1.83;;;19.10;99.90;;;;;;6197806;23;20427;-83
2021/08/18 18:35:36;;;;;;;2.23;2.03;;;19.00;99.90;;;;;;6204437;23;20760;-82
2021/08/18 18:38:03;;;;;;;2.30;2.10;;;19.10;99.90;;;;;;6202892;23;20508;-83
2021/08/18 18:40:30;;;;;;;2.50;2.13;;;19.00;99.90;;;;;;6196180;23;20719;-84
2021/08/18 18:43:00;;;;;;;1.87;1.77;;;19.10;99.90;;;;;;6198931;23;20500;-84
2021/08/18 18:45:27;;;;;;;2.17;1.90;;;19.10;99.90;;;;;;6198710;23;20829;-84
2021/08/18 18:47:55;;;;;;;2.63;1.90;;;18.90;99.90;;;;;;6198172;23;20725;-84
2021/08/18 18:50:24;;;;;;;2.20;2.10;;;19.00;99.90;;;;;;6198632;23;20484;-84
2021/08/18 18:52:51;;;;;;;2.37;2.17;;;19.00;99.90;;;;;;6198441;23;20448;-84
2021/08/18 18:55:18;;;;;;;1.90;1.80;;;18.90;99.90;;;;;;6197811;23;20501;-84
2021/08/18 18:57:50;;;;;;;1.87;1.77;;;18.90;99.90;;;;;;6198296;23;20447;-84
2021/08/18 19:00:29;;;;;;;2.00;1.63;;;18.90;99.90;;;;;;6198530;23;20766;-84
